sensor_id;sensor_type;location;lat;lon;timestamp;P1;durP1;ratioP1;P2;durP2;ratioP2
10122;SDS011;5101;49.038;8.710;2023-07-31T00:00:01;2.42;;;0.93;;
10122;SDS011;5101;49.038;8.710;2023-07-31T00:02:27;3.47;;;1.23;;
10122;SDS011;5101;49.038;8.710;2023-07-31T00:04:52;3.20;;;1.20;;
10122;SDS011;5101;49.038;8.710;2023-07-31T00:07:18;3.78;;;1.00;;
10122;SDS011;5101;49.038;8.710;2023-07-31T00:09:43;2.28;;;0.93;;
10122;SDS011;5101;49.038;8.710;2023-07-31T00:12:09;2.10;;;1.00;;
10122;SDS011;5101;49.038;8.710;2023-07-31T00:14:34;1.95;;;1.10;;
10122;SDS011;5101;49.038;8.710;2023-07-31T00:17:00;1.75;;;1.20;;
10122;SDS011;5101;49.038;8.710;2023-07-31T00:19:26;1.27;;;0.90;;
10122;SDS011;5101;49.038;8.710;2023-07-31T00:21:52;2.13;;;1.00;;
10122;SDS011;5101;49.038;8.710;2023-07-31T00:24:17;2.17;;;1.02;;
10122;SDS011;5101;49.038;8.710;2023-07-31T00:26:43;4.57;;;1.08;;
10122;SDS011;5101;49.038;8.710;2023-07-31T00:29:08;3.42;;;1.23;;
10122;SDS011;5101;49.038;8.710;2023-07-31T00:31:33;3.38;;;1.13;;
10122;SDS011;5101;49.038;8.710;2023-07-31T00:33:59;4.47;;;1.10;;
10122;SDS011;5101;49.038;8.710;2023-07-31T00:36:24;4.70;;;1.20;;
10122;SDS011;5101;49.038;8.710;2023-07-31T00:38:50;3.45;;;1.00;;
10122;SDS011;5101;49.038;8.710;2023-07-31T00:41:15;4.60;;;1.25;;
10122;SDS011;5101;49.038;8.710;2023-07-31T00:43:41;2.22;;;1.13;;
10122;SDS011;5101;49.038;8.710;2023-07-31T00:46:06;1.08;;;0.80;;
10122;SDS011;5101;49.038;8.710;2023-07-31T00:48:32;4.60;;;1.20;;
10122;SDS011;5101;49.038;8.710;2023-07-31T00:50:58;4.15;;;1.20;;
10122;SDS011;5101;49.038;8.710;2023-07-31T00:53:25;1.83;;;0.95;;
10122;SDS011;5101;49.038;8.710;2023-07-31T00:55:52;3.03;;;1.02;;
10122;SDS011;5101;49.038;8.710;2023-07-31T00:58:18;2.25;;;1.23;;
10122;SDS011;5101;49.038;8.710;2023-07-31T01:00:43;4.20;;;1.20;;
10122;SDS011;5101;49.038;8.710;2023-07-31T01:03:09;3.33;;;0.95;;
10122;SDS011;5101;49.038;8.710;2023-07-31T01:11:27;2.75;;;1.00;;
10122;SDS011;5101;49.038;8.710;2023-07-31T01:13:55;1.75;;;1.08;;
10122;SDS011;5101;49.038;8.710;2023-07-31T01:16:21;3.95;;;1.10;;
10122;SDS011;5101;49.038;8.710;2023-07-31T01:18:46;5.38;;;1.40;;
10122;SDS011;5101;49.038;8.710;2023-07-31T01:21:23;3.40;;;1.10;;
10122;SDS011;5101;49.038;8.710;2023-07-31T01:26:56;1.38;;;0.82;;
10122;SDS011;5101;49.038;8.710;2023-07-31T01:31:55;3.55;;;1.20;;
10122;SDS011;5101;49.038;8.710;2023-07-31T01:34:24;4.20;;;1.00;;
10122;SDS011;5101;49.038;8.710;2023-07-31T01:36:51;3.47;;;1.40;;
10122;SDS011;5101;49.038;8.710;2023-07-31T01:39:16;2.65;;;1.05;;
10122;SDS011;5101;49.038;8.710;2023-07-31T01:41:45;2.00;;;0.98;;
10122;SDS011;5101;49.038;8.710;2023-07-31T01:44:11;2.17;;;1.40;;
10122;SDS011;5101;49.038;8.710;2023-07-31T01:46:36;3.28;;;1.05;;
10122;SDS011;5101;49.038;8.710;2023-07-31T01:49:01;3.75;;;1.40;;
10122;SDS011;5101;49.038;8.710;2023-07-31T01:51:27;2.97;;;1.33;;
10122;SDS011;5101;49.038;8.710;2023-07-31T01:53:53;3.42;;;1.10;;
10122;SDS011;5101;49.038;8.710;2023-07-31T01:56:18;2.67;;;1.05;;
10122;SDS011;5101;49.038;8.710;2023-07-31T01:58:44;4.72;;;1.52;;
10122;SDS011;5101;49.038;8.710;2023-07-31T02:01:09;1.55;;;0.80;;
10122;SDS011;5101;49.038;8.710;2023-07-31T02:03:35;2.50;;;0.88;;
10122;SDS011;5101;49.038;8.710;2023-07-31T02:06:00;2.67;;;1.30;;
10122;SDS011;5101;49.038;8.710;2023-07-31T02:08:26;2.67;;;0.98;;
10122;SDS011;5101;49.038;8.710;2023-07-31T02:10:51;2.58;;;0.93;;
10122;SDS011;5101;49.038;8.710;2023-07-31T02:13:17;4.70;;;1.70;;
10122;SDS011;5101;49.038;8.710;2023-07-31T02:15:42;1.73;;;0.90;;
10122;SDS011;5101;49.038;8.710;2023-07-31T02:18:08;3.55;;;0.98;;
10122;SDS011;5101;49.038;8.710;2023-07-31T02:20:34;2.17;;;0.90;;
10122;SDS011;5101;49.038;8.710;2023-07-31T02:23:00;7.60;;;1.33;;
10122;SDS011;5101;49.038;8.710;2023-07-31T02:25:26;3.25;;;1.10;;
10122;SDS011;5101;49.038;8.710;2023-07-31T02:27:51;2.97;;;1.20;;
10122;SDS011;5101;49.038;8.710;2023-07-31T02:30:17;4.38;;;0.80;;
10122;SDS011;5101;49.038;8.710;2023-07-31T02:32:42;3.13;;;1.10;;
10122;SDS011;5101;49.038;8.710;2023-07-31T02:35:08;2.28;;;1.00;;
10122;SDS011;5101;49.038;8.710;2023-07-31T02:37:33;3.95;;;1.00;;
10122;SDS011;5101;49.038;8.710;2023-07-31T02:39:59;3.28;;;1.20;;
10122;SDS011;5101;49.038;8.710;2023-07-31T02:42:24;2.78;;;1.00;;
10122;SDS011;5101;49.038;8.710;2023-07-31T02:44:50;3.05;;;1.17;;
10122;SDS011;5101;49.038;8.710;2023-07-31T02:47:20;3.97;;;1.00;;
10122;SDS011;5101;49.038;8.710;2023-07-31T02:49:46;2.72;;;1.00;;
10122;SDS011;5101;49.038;8.710;2023-07-31T02:52:12;2.60;;;1.13;;
10122;SDS011;5101;49.038;8.710;2023-07-31T02:54:37;2.47;;;1.02;;
10122;SDS011;5101;49.038;8.710;2023-07-31T02:57:03;2.05;;;1.08;;
10122;SDS011;5101;49.038;8.710;2023-07-31T02:59:28;3.05;;;1.00;;
10122;SDS011;5101;49.038;8.710;2023-07-31T03:01:54;4.82;;;1.30;;
10122;SDS011;5101;49.038;8.710;2023-07-31T03:04:19;3.30;;;1.30;;
10122;SDS011;5101;49.038;8.710;2023-07-31T03:06:45;4.97;;;1.05;;
10122;SDS011;5101;49.038;8.710;2023-07-31T03:09:10;2.92;;;1.30;;
10122;SDS011;5101;49.038;8.710;2023-07-31T03:11:36;2.20;;;1.20;;
10122;SDS011;5101;49.038;8.710;2023-07-31T03:14:01;2.30;;;1.30;;
10122;SDS011;5101;49.038;8.710;2023-07-31T03:16:27;4.72;;;1.35;;
10122;SDS011;5101;49.038;8.710;2023-07-31T03:18:52;3.50;;;1.05;;
10122;SDS011;5101;49.038;8.710;2023-07-31T03:21:19;4.90;;;1.00;;
10122;SDS011;5101;49.038;8.710;2023-07-31T03:23:44;3.45;;;1.30;;
10122;SDS011;5101;49.038;8.710;2023-07-31T03:26:10;3.55;;;1.10;;
10122;SDS011;5101;49.038;8.710;2023-07-31T03:28:35;1.52;;;0.90;;
10122;SDS011;5101;49.038;8.710;2023-07-31T03:31:01;1.70;;;0.82;;
10122;SDS011;5101;49.038;8.710;2023-07-31T03:33:27;4.15;;;1.48;;
10122;SDS011;5101;49.038;8.710;2023-07-31T03:35:52;1.50;;;1.02;;
10122;SDS011;5101;49.038;8.710;2023-07-31T03:38:18;2.58;;;1.45;;
10122;SDS011;5101;49.038;8.710;2023-07-31T03:40:44;4.60;;;1.65;;
10122;SDS011;5101;49.038;8.710;2023-07-31T03:43:10;4.93;;;1.73;;
10122;SDS011;5101;49.038;8.710;2023-07-31T03:45:36;3.78;;;1.60;;
10122;SDS011;5101;49.038;8.710;2023-07-31T03:48:01;1.63;;;1.20;;
10122;SDS011;5101;49.038;8.710;2023-07-31T03:50:28;2.97;;;1.38;;
10122;SDS011;5101;49.038;8.710;2023-07-31T03:52:53;3.80;;;1.15;;
10122;SDS011;5101;49.038;8.710;2023-07-31T03:55:19;3.28;;;1.33;;
10122;SDS011;5101;49.038;8.710;2023-07-31T03:57:44;3.85;;;1.20;;
10122;SDS011;5101;49.038;8.710;2023-07-31T04:00:10;4.38;;;1.30;;
10122;SDS011;5101;49.038;8.710;2023-07-31T04:02:36;2.00;;;1.10;;
10122;SDS011;5101;49.038;8.710;2023-07-31T04:05:01;2.47;;;1.63;;
10122;SDS011;5101;49.038;8.710;2023-07-31T04:07:27;2.38;;;1.40;;
10122;SDS011;5101;49.038;8.710;2023-07-31T04:09:52;5.63;;;1.30;;
10122;SDS011;5101;49.038;8.710;2023-07-31T04:12:18;1.90;;;1.30;;
10122;SDS011;5101;49.038;8.710;2023-07-31T04:14:43;1.77;;;1.35;;
10122;SDS011;5101;49.038;8.710;2023-07-31T04:17:09;2.75;;;1.30;;
10122;SDS011;5101;49.038;8.710;2023-07-31T04:19:34;4.60;;;1.05;;
10122;SDS011;5101;49.038;8.710;2023-07-31T04:22:00;4.40;;;1.50;;
10122;SDS011;5101;49.038;8.710;2023-07-31T04:24:25;6.75;;;1.23;;
10122;SDS011;5101;49.038;8.710;2023-07-31T04:26:51;2.92;;;1.00;;
10122;SDS011;5101;49.038;8.710;2023-07-31T04:29:17;4.05;;;1.30;;
10122;SDS011;5101;49.038;8.710;2023-07-31T04:31:42;3.28;;;1.40;;
10122;SDS011;5101;49.038;8.710;2023-07-31T04:34:08;3.53;;;1.10;;
10122;SDS011;5101;49.038;8.710;2023-07-31T04:36:34;3.33;;;1.27;;
10122;SDS011;5101;49.038;8.710;2023-07-31T04:39:00;3.22;;;1.40;;
10122;SDS011;5101;49.038;8.710;2023-07-31T04:41:25;2.90;;;1.55;;
10122;SDS011;5101;49.038;8.710;2023-07-31T04:43:51;2.17;;;1.10;;
10122;SDS011;5101;49.038;8.710;2023-07-31T04:46:16;5.38;;;1.42;;
10122;SDS011;5101;49.038;8.710;2023-07-31T04:48:42;3.05;;;1.20;;
10122;SDS011;5101;49.038;8.710;2023-07-31T04:51:08;2.75;;;1.10;;
10122;SDS011;5101;49.038;8.710;2023-07-31T04:53:36;2.50;;;1.33;;
10122;SDS011;5101;49.038;8.710;2023-07-31T04:56:02;3.33;;;1.30;;
10122;SDS011;5101;49.038;8.710;2023-07-31T04:58:27;1.85;;;1.27;;
10122;SDS011;5101;49.038;8.710;2023-07-31T05:00:53;2.15;;;1.02;;
10122;SDS011;5101;49.038;8.710;2023-07-31T05:03:18;3.40;;;2.03;;
10122;SDS011;5101;49.038;8.710;2023-07-31T05:05:44;3.05;;;1.35;;
10122;SDS011;5101;49.038;8.710;2023-07-31T05:08:09;2.45;;;1.20;;
10122;SDS011;5101;49.038;8.710;2023-07-31T05:10:35;4.15;;;1.20;;
10122;SDS011;5101;49.038;8.710;2023-07-31T05:13:00;4.15;;;1.65;;
10122;SDS011;5101;49.038;8.710;2023-07-31T05:15:26;1.52;;;1.35;;
10122;SDS011;5101;49.038;8.710;2023-07-31T05:17:52;2.97;;;1.48;;
10122;SDS011;5101;49.038;8.710;2023-07-31T05:20:17;4.00;;;1.40;;
10122;SDS011;5101;49.038;8.710;2023-07-31T05:22:43;2.95;;;1.40;;
10122;SDS011;5101;49.038;8.710;2023-07-31T05:25:08;3.15;;;1.50;;
10122;SDS011;5101;49.038;8.710;2023-07-31T05:27:34;4.65;;;1.60;;
10122;SDS011;5101;49.038;8.710;2023-07-31T05:29:59;4.20;;;1.73;;
10122;SDS011;5101;49.038;8.710;2023-07-31T05:32:25;5.38;;;1.67;;
10122;SDS011;5101;49.038;8.710;2023-07-31T05:34:51;3.28;;;1.50;;
10122;SDS011;5101;49.038;8.710;2023-07-31T05:37:17;3.72;;;1.70;;
10122;SDS011;5101;49.038;8.710;2023-07-31T05:39:43;1.55;;;1.20;;
10122;SDS011;5101;49.038;8.710;2023-07-31T05:42:08;2.60;;;1.40;;
10122;SDS011;5101;49.038;8.710;2023-07-31T05:44:34;5.50;;;1.40;;
10122;SDS011;5101;49.038;8.710;2023-07-31T05:46:59;2.95;;;1.38;;
10122;SDS011;5101;49.038;8.710;2023-07-31T05:49:25;4.18;;;1.40;;
10122;SDS011;5101;49.038;8.710;2023-07-31T05:51:50;5.47;;;1.60;;
10122;SDS011;5101;49.038;8.710;2023-07-31T05:54:16;3.17;;;1.50;;
10122;SDS011;5101;49.038;8.710;2023-07-31T05:56:41;3.85;;;1.83;;
10122;SDS011;5101;49.038;8.710;2023-07-31T05:59:08;3.90;;;1.50;;
10122;SDS011;5101;49.038;8.710;2023-07-31T06:01:34;3.70;;;1.50;;
10122;SDS011;5101;49.038;8.710;2023-07-31T06:04:00;4.78;;;1.70;;
10122;SDS011;5101;49.038;8.710;2023-07-31T06:06:26;3.58;;;1.50;;
10122;SDS011;5101;49.038;8.710;2023-07-31T06:08:52;4.38;;;1.30;;
10122;SDS011;5101;49.038;8.710;2023-07-31T06:11:18;4.25;;;1.42;;
10122;SDS011;5101;49.038;8.710;2023-07-31T06:13:45;3.63;;;1.30;;
10122;SDS011;5101;49.038;8.710;2023-07-31T06:16:11;2.25;;;1.42;;
10122;SDS011;5101;49.038;8.710;2023-07-31T06:18:37;1.95;;;1.25;;
10122;SDS011;5101;49.038;8.710;2023-07-31T06:21:02;2.00;;;1.27;;
10122;SDS011;5101;49.038;8.710;2023-07-31T06:23:28;3.45;;;1.50;;
10122;SDS011;5101;49.038;8.710;2023-07-31T06:25:54;4.53;;;1.35;;
10122;SDS011;5101;49.038;8.710;2023-07-31T06:28:19;3.47;;;1.48;;
10122;SDS011;5101;49.038;8.710;2023-07-31T06:30:45;4.90;;;1.60;;
10122;SDS011;5101;49.038;8.710;2023-07-31T06:33:10;2.67;;;1.20;;
10122;SDS011;5101;49.038;8.710;2023-07-31T06:35:35;3.33;;;1.60;;
10122;SDS011;5101;49.038;8.710;2023-07-31T06:38:01;4.50;;;1.85;;
10122;SDS011;5101;49.038;8.710;2023-07-31T06:40:27;3.55;;;1.40;;
10122;SDS011;5101;49.038;8.710;2023-07-31T06:42:53;2.25;;;1.30;;
10122;SDS011;5101;49.038;8.710;2023-07-31T06:45:19;3.30;;;1.20;;
10122;SDS011;5101;49.038;8.710;2023-07-31T06:47:45;3.65;;;1.50;;
10122;SDS011;5101;49.038;8.710;2023-07-31T06:50:11;6.78;;;1.75;;
10122;SDS011;5101;49.038;8.710;2023-07-31T06:52:36;2.53;;;1.30;;
10122;SDS011;5101;49.038;8.710;2023-07-31T06:55:03;2.20;;;1.40;;
10122;SDS011;5101;49.038;8.710;2023-07-31T06:57:40;5.70;;;1.80;;
10122;SDS011;5101;49.038;8.710;2023-07-31T07:00:06;2.25;;;1.58;;
10122;SDS011;5101;49.038;8.710;2023-07-31T07:02:32;3.80;;;1.52;;
10122;SDS011;5101;49.038;8.710;2023-07-31T07:04:57;3.22;;;1.50;;
10122;SDS011;5101;49.038;8.710;2023-07-31T07:07:23;2.38;;;1.60;;
10122;SDS011;5101;49.038;8.710;2023-07-31T07:09:48;3.92;;;1.52;;
10122;SDS011;5101;49.038;8.710;2023-07-31T07:12:14;2.75;;;1.60;;
10122;SDS011;5101;49.038;8.710;2023-07-31T07:14:39;5.32;;;1.65;;
10122;SDS011;5101;49.038;8.710;2023-07-31T07:17:05;2.63;;;1.40;;
10122;SDS011;5101;49.038;8.710;2023-07-31T07:19:31;2.60;;;1.30;;
10122;SDS011;5101;49.038;8.710;2023-07-31T07:21:56;5.40;;;1.70;;
10122;SDS011;5101;49.038;8.710;2023-07-31T07:24:22;4.13;;;1.55;;
10122;SDS011;5101;49.038;8.710;2023-07-31T07:26:47;4.10;;;1.40;;
10122;SDS011;5101;49.038;8.710;2023-07-31T07:29:13;2.78;;;1.50;;
10122;SDS011;5101;49.038;8.710;2023-07-31T07:31:38;3.17;;;1.52;;
10122;SDS011;5101;49.038;8.710;2023-07-31T07:34:03;2.67;;;1.13;;
10122;SDS011;5101;49.038;8.710;2023-07-31T07:36:29;2.58;;;1.60;;
10122;SDS011;5101;49.038;8.710;2023-07-31T07:38:54;3.60;;;1.42;;
10122;SDS011;5101;49.038;8.710;2023-07-31T07:41:20;1.95;;;1.35;;
10122;SDS011;5101;49.038;8.710;2023-07-31T07:43:45;2.95;;;1.48;;
10122;SDS011;5101;49.038;8.710;2023-07-31T07:46:11;4.25;;;1.63;;
10122;SDS011;5101;49.038;8.710;2023-07-31T07:48:36;4.70;;;1.70;;
10122;SDS011;5101;49.038;8.710;2023-07-31T07:51:02;4.60;;;1.60;;
10122;SDS011;5101;49.038;8.710;2023-07-31T07:53:27;4.60;;;1.50;;
10122;SDS011;5101;49.038;8.710;2023-07-31T07:55:53;3.58;;;1.30;;
10122;SDS011;5101;49.038;8.710;2023-07-31T07:58:18;2.78;;;1.45;;
10122;SDS011;5101;49.038;8.710;2023-07-31T08:00:50;2.55;;;1.30;;
10122;SDS011;5101;49.038;8.710;2023-07-31T08:03:16;3.83;;;1.50;;
10122;SDS011;5101;49.038;8.710;2023-07-31T08:05:42;3.58;;;1.75;;
10122;SDS011;5101;49.038;8.710;2023-07-31T08:08:07;4.30;;;1.60;;
10122;SDS011;5101;49.038;8.710;2023-07-31T08:10:33;3.45;;;1.77;;
10122;SDS011;5101;49.038;8.710;2023-07-31T08:12:58;3.65;;;1.30;;
10122;SDS011;5101;49.038;8.710;2023-07-31T08:15:24;3.15;;;1.50;;
10122;SDS011;5101;49.038;8.710;2023-07-31T08:17:49;2.63;;;1.40;;
10122;SDS011;5101;49.038;8.710;2023-07-31T08:20:15;3.60;;;1.65;;
10122;SDS011;5101;49.038;8.710;2023-07-31T08:22:40;3.13;;;1.55;;
10122;SDS011;5101;49.038;8.710;2023-07-31T08:25:06;3.10;;;1.83;;
10122;SDS011;5101;49.038;8.710;2023-07-31T08:27:32;4.25;;;1.45;;
10122;SDS011;5101;49.038;8.710;2023-07-31T08:29:57;2.97;;;1.90;;
10122;SDS011;5101;49.038;8.710;2023-07-31T08:32:23;3.65;;;1.45;;
10122;SDS011;5101;49.038;8.710;2023-07-31T08:34:48;2.55;;;1.48;;
10122;SDS011;5101;49.038;8.710;2023-07-31T08:37:14;2.63;;;1.40;;
10122;SDS011;5101;49.038;8.710;2023-07-31T08:39:39;2.92;;;1.60;;
10122;SDS011;5101;49.038;8.710;2023-07-31T08:42:07;3.00;;;1.55;;
10122;SDS011;5101;49.038;8.710;2023-07-31T08:44:34;3.00;;;1.55;;
10122;SDS011;5101;49.038;8.710;2023-07-31T08:47:00;3.58;;;1.63;;
10122;SDS011;5101;49.038;8.710;2023-07-31T08:49:26;3.10;;;1.73;;
10122;SDS011;5101;49.038;8.710;2023-07-31T08:51:54;3.85;;;1.52;;
10122;SDS011;5101;49.038;8.710;2023-07-31T08:54:20;2.45;;;1.38;;
10122;SDS011;5101;49.038;8.710;2023-07-31T08:56:46;3.88;;;1.55;;
10122;SDS011;5101;49.038;8.710;2023-07-31T08:59:11;2.03;;;1.40;;
10122;SDS011;5101;49.038;8.710;2023-07-31T09:01:41;4.88;;;1.90;;
10122;SDS011;5101;49.038;8.710;2023-07-31T09:04:13;2.30;;;1.67;;
10122;SDS011;5101;49.038;8.710;2023-07-31T09:06:40;3.85;;;1.83;;
10122;SDS011;5101;49.038;8.710;2023-07-31T09:09:07;4.65;;;1.80;;
10122;SDS011;5101;49.038;8.710;2023-07-31T09:11:32;4.00;;;1.98;;
10122;SDS011;5101;49.038;8.710;2023-07-31T09:13:58;5.60;;;2.05;;
10122;SDS011;5101;49.038;8.710;2023-07-31T09:16:27;4.18;;;1.90;;
10122;SDS011;5101;49.038;8.710;2023-07-31T09:18:56;3.30;;;1.75;;
10122;SDS011;5101;49.038;8.710;2023-07-31T09:21:22;3.13;;;1.70;;
10122;SDS011;5101;49.038;8.710;2023-07-31T09:23:48;4.13;;;1.67;;
10122;SDS011;5101;49.038;8.710;2023-07-31T09:26:32;4.03;;;1.80;;
10122;SDS011;5101;49.038;8.710;2023-07-31T09:29:04;3.05;;;1.30;;
10122;SDS011;5101;49.038;8.710;2023-07-31T09:31:40;5.88;;;1.73;;
10122;SDS011;5101;49.038;8.710;2023-07-31T09:34:06;2.33;;;1.45;;
10122;SDS011;5101;49.038;8.710;2023-07-31T09:36:32;3.63;;;1.90;;
10122;SDS011;5101;49.038;8.710;2023-07-31T09:39:04;3.08;;;1.75;;
10122;SDS011;5101;49.038;8.710;2023-07-31T09:41:30;4.70;;;2.10;;
10122;SDS011;5101;49.038;8.710;2023-07-31T09:43:56;4.60;;;1.85;;
10122;SDS011;5101;49.038;8.710;2023-07-31T09:46:21;5.03;;;1.90;;
10122;SDS011;5101;49.038;8.710;2023-07-31T09:48:47;3.58;;;1.60;;
10122;SDS011;5101;49.038;8.710;2023-07-31T09:51:13;2.78;;;1.63;;
10122;SDS011;5101;49.038;8.710;2023-07-31T09:53:38;2.50;;;1.50;;
10122;SDS011;5101;49.038;8.710;2023-07-31T09:56:04;3.00;;;1.65;;
10122;SDS011;5101;49.038;8.710;2023-07-31T09:58:30;3.50;;;1.92;;
10122;SDS011;5101;49.038;8.710;2023-07-31T10:00:59;5.65;;;2.00;;
10122;SDS011;5101;49.038;8.710;2023-07-31T10:03:26;3.50;;;1.70;;
10122;SDS011;5101;49.038;8.710;2023-07-31T10:05:55;3.55;;;1.85;;
10122;SDS011;5101;49.038;8.710;2023-07-31T10:08:23;3.40;;;1.80;;
10122;SDS011;5101;49.038;8.710;2023-07-31T10:10:54;4.68;;;1.85;;
10122;SDS011;5101;49.038;8.710;2023-07-31T10:13:24;3.45;;;2.03;;
10122;SDS011;5101;49.038;8.710;2023-07-31T10:15:52;4.50;;;2.13;;
10122;SDS011;5101;49.038;8.710;2023-07-31T10:18:19;3.45;;;1.75;;
10122;SDS011;5101;49.038;8.710;2023-07-31T10:20:45;3.00;;;1.90;;
10122;SDS011;5101;49.038;8.710;2023-07-31T10:23:12;4.43;;;2.13;;
10122;SDS011;5101;49.038;8.710;2023-07-31T10:25:38;5.40;;;2.17;;
10122;SDS011;5101;49.038;8.710;2023-07-31T10:28:04;4.43;;;2.25;;
10122;SDS011;5101;49.038;8.710;2023-07-31T10:30:32;3.20;;;1.80;;
10122;SDS011;5101;49.038;8.710;2023-07-31T10:32:58;2.63;;;1.83;;
10122;SDS011;5101;49.038;8.710;2023-07-31T10:35:24;3.28;;;1.73;;
10122;SDS011;5101;49.038;8.710;2023-07-31T10:37:50;4.00;;;2.13;;
10122;SDS011;5101;49.038;8.710;2023-07-31T10:40:24;3.75;;;1.70;;
10122;SDS011;5101;49.038;8.710;2023-07-31T10:42:52;3.40;;;1.80;;
10122;SDS011;5101;49.038;8.710;2023-07-31T10:50:52;5.97;;;1.90;;
10122;SDS011;5101;49.038;8.710;2023-07-31T10:53:24;3.63;;;1.85;;
10122;SDS011;5101;49.038;8.710;2023-07-31T10:55:58;4.60;;;1.80;;
10122;SDS011;5101;49.038;8.710;2023-07-31T10:58:34;2.78;;;1.60;;
10122;SDS011;5101;49.038;8.710;2023-07-31T11:01:01;4.32;;;1.88;;
10122;SDS011;5101;49.038;8.710;2023-07-31T11:03:46;3.55;;;1.80;;
10122;SDS011;5101;49.038;8.710;2023-07-31T11:06:17;2.53;;;1.60;;
10122;SDS011;5101;49.038;8.710;2023-07-31T11:08:46;3.55;;;1.98;;
10122;SDS011;5101;49.038;8.710;2023-07-31T11:11:14;4.32;;;2.10;;
10122;SDS011;5101;49.038;8.710;2023-07-31T11:13:41;3.42;;;2.15;;
10122;SDS011;5101;49.038;8.710;2023-07-31T11:16:09;2.22;;;1.83;;
10122;SDS011;5101;49.038;8.710;2023-07-31T11:18:38;6.68;;;1.88;;
10122;SDS011;5101;49.038;8.710;2023-07-31T11:21:05;5.22;;;1.88;;
10122;SDS011;5101;49.038;8.710;2023-07-31T11:23:31;4.85;;;1.73;;
10122;SDS011;5101;49.038;8.710;2023-07-31T11:26:00;5.05;;;1.92;;
10122;SDS011;5101;49.038;8.710;2023-07-31T11:28:25;5.15;;;1.67;;
10122;SDS011;5101;49.038;8.710;2023-07-31T11:30:51;3.42;;;1.95;;
10122;SDS011;5101;49.038;8.710;2023-07-31T11:33:16;5.68;;;1.95;;
10122;SDS011;5101;49.038;8.710;2023-07-31T11:35:46;5.93;;;1.90;;
10122;SDS011;5101;49.038;8.710;2023-07-31T11:38:23;4.00;;;1.77;;
10122;SDS011;5101;49.038;8.710;2023-07-31T11:40:50;3.65;;;1.58;;
10122;SDS011;5101;49.038;8.710;2023-07-31T11:43:17;3.05;;;1.75;;
10122;SDS011;5101;49.038;8.710;2023-07-31T11:45:47;2.17;;;1.70;;
10122;SDS011;5101;49.038;8.710;2023-07-31T11:48:24;2.42;;;1.67;;
10122;SDS011;5101;49.038;8.710;2023-07-31T11:50:55;4.65;;;2.13;;
10122;SDS011;5101;49.038;8.710;2023-07-31T11:53:31;5.25;;;1.70;;
10122;SDS011;5101;49.038;8.710;2023-07-31T11:55:57;3.20;;;1.90;;
10122;SDS011;5101;49.038;8.710;2023-07-31T11:58:25;2.13;;;1.45;;
10122;SDS011;5101;49.038;8.710;2023-07-31T12:00:51;5.70;;;1.80;;
10122;SDS011;5101;49.038;8.710;2023-07-31T12:03:17;3.40;;;1.75;;
10122;SDS011;5101;49.038;8.710;2023-07-31T12:05:43;2.53;;;1.67;;
10122;SDS011;5101;49.038;8.710;2023-07-31T12:08:10;4.15;;;1.88;;
10122;SDS011;5101;49.038;8.710;2023-07-31T12:10:37;4.88;;;1.83;;
10122;SDS011;5101;49.038;8.710;2023-07-31T12:13:10;4.60;;;1.73;;
10122;SDS011;5101;49.038;8.710;2023-07-31T12:15:40;3.38;;;1.80;;
10122;SDS011;5101;49.038;8.710;2023-07-31T12:18:11;3.40;;;1.70;;
10122;SDS011;5101;49.038;8.710;2023-07-31T12:20:42;3.05;;;1.55;;
10122;SDS011;5101;49.038;8.710;2023-07-31T12:23:16;3.28;;;1.90;;
10122;SDS011;5101;49.038;8.710;2023-07-31T12:25:43;2.13;;;1.60;;
10122;SDS011;5101;49.038;8.710;2023-07-31T12:28:09;3.90;;;1.95;;
10122;SDS011;5101;49.038;8.710;2023-07-31T12:30:39;3.75;;;1.90;;
10122;SDS011;5101;49.038;8.710;2023-07-31T12:33:14;4.15;;;1.52;;
10122;SDS011;5101;49.038;8.710;2023-07-31T12:35:41;3.75;;;1.92;;
10122;SDS011;5101;49.038;8.710;2023-07-31T12:38:08;4.13;;;1.73;;
10122;SDS011;5101;49.038;8.710;2023-07-31T12:40:35;3.00;;;1.50;;
10122;SDS011;5101;49.038;8.710;2023-07-31T12:43:02;3.05;;;1.90;;
10122;SDS011;5101;49.038;8.710;2023-07-31T12:45:28;3.53;;;1.70;;
10122;SDS011;5101;49.038;8.710;2023-07-31T12:47:54;2.35;;;1.58;;
10122;SDS011;5101;49.038;8.710;2023-07-31T12:50:20;2.55;;;1.70;;
10122;SDS011;5101;49.038;8.710;2023-07-31T12:52:45;2.70;;;1.80;;
10122;SDS011;5101;49.038;8.710;2023-07-31T12:55:11;2.78;;;1.67;;
10122;SDS011;5101;49.038;8.710;2023-07-31T12:57:36;2.28;;;1.60;;
10122;SDS011;5101;49.038;8.710;2023-07-31T13:00:02;4.35;;;2.10;;
10122;SDS011;5101;49.038;8.710;2023-07-31T13:02:28;3.30;;;1.52;;
10122;SDS011;5101;49.038;8.710;2023-07-31T13:04:54;1.45;;;1.30;;
10122;SDS011;5101;49.038;8.710;2023-07-31T13:07:21;3.47;;;1.88;;
10122;SDS011;5101;49.038;8.710;2023-07-31T13:09:47;2.40;;;1.73;;
10122;SDS011;5101;49.038;8.710;2023-07-31T13:12:13;3.20;;;1.38;;
10122;SDS011;5101;49.038;8.710;2023-07-31T13:14:38;3.55;;;1.83;;
10122;SDS011;5101;49.038;8.710;2023-07-31T13:17:04;4.05;;;1.70;;
10122;SDS011;5101;49.038;8.710;2023-07-31T13:19:29;2.85;;;1.50;;
10122;SDS011;5101;49.038;8.710;2023-07-31T13:21:55;2.70;;;1.55;;
10122;SDS011;5101;49.038;8.710;2023-07-31T13:24:20;6.00;;;1.77;;
10122;SDS011;5101;49.038;8.710;2023-07-31T13:26:46;2.63;;;1.98;;
10122;SDS011;5101;49.038;8.710;2023-07-31T13:29:11;1.70;;;1.60;;
10122;SDS011;5101;49.038;8.710;2023-07-31T13:31:37;2.72;;;1.30;;
10122;SDS011;5101;49.038;8.710;2023-07-31T13:34:02;3.03;;;1.65;;
10122;SDS011;5101;49.038;8.710;2023-07-31T13:36:28;2.15;;;1.50;;
10122;SDS011;5101;49.038;8.710;2023-07-31T13:38:53;4.32;;;1.70;;
10122;SDS011;5101;49.038;8.710;2023-07-31T13:41:19;3.05;;;1.80;;
10122;SDS011;5101;49.038;8.710;2023-07-31T13:43:44;3.20;;;1.40;;
10122;SDS011;5101;49.038;8.710;2023-07-31T13:46:10;3.20;;;1.65;;
10122;SDS011;5101;49.038;8.710;2023-07-31T13:48:36;2.22;;;1.40;;
10122;SDS011;5101;49.038;8.710;2023-07-31T13:51:02;2.28;;;1.63;;
10122;SDS011;5101;49.038;8.710;2023-07-31T13:53:27;3.03;;;1.70;;
10122;SDS011;5101;49.038;8.710;2023-07-31T13:55:53;3.63;;;1.70;;
10122;SDS011;5101;49.038;8.710;2023-07-31T13:58:18;2.30;;;1.30;;
10122;SDS011;5101;49.038;8.710;2023-07-31T14:00:45;3.78;;;1.98;;
10122;SDS011;5101;49.038;8.710;2023-07-31T14:03:10;5.57;;;1.85;;
10122;SDS011;5101;49.038;8.710;2023-07-31T14:05:36;2.42;;;1.35;;
10122;SDS011;5101;49.038;8.710;2023-07-31T14:08:02;2.63;;;1.58;;
10122;SDS011;5101;49.038;8.710;2023-07-31T14:10:27;3.50;;;1.60;;
10122;SDS011;5101;49.038;8.710;2023-07-31T14:12:53;3.60;;;1.90;;
10122;SDS011;5101;49.038;8.710;2023-07-31T14:15:18;3.53;;;1.90;;
10122;SDS011;5101;49.038;8.710;2023-07-31T14:17:44;2.60;;;1.63;;
10122;SDS011;5101;49.038;8.710;2023-07-31T14:20:10;3.90;;;2.00;;
10122;SDS011;5101;49.038;8.710;2023-07-31T14:22:35;2.90;;;1.85;;
10122;SDS011;5101;49.038;8.710;2023-07-31T14:25:02;3.70;;;1.60;;
10122;SDS011;5101;49.038;8.710;2023-07-31T14:27:28;3.70;;;1.63;;
10122;SDS011;5101;49.038;8.710;2023-07-31T14:29:54;3.00;;;1.75;;
10122;SDS011;5101;49.038;8.710;2023-07-31T14:32:20;2.28;;;1.60;;
10122;SDS011;5101;49.038;8.710;2023-07-31T14:34:46;3.03;;;1.85;;
10122;SDS011;5101;49.038;8.710;2023-07-31T14:37:12;3.78;;;1.75;;
10122;SDS011;5101;49.038;8.710;2023-07-31T14:39:37;2.85;;;1.58;;
10122;SDS011;5101;49.038;8.710;2023-07-31T14:42:03;3.38;;;1.73;;
10122;SDS011;5101;49.038;8.710;2023-07-31T14:44:28;3.70;;;1.60;;
10122;SDS011;5101;49.038;8.710;2023-07-31T14:46:54;3.22;;;1.60;;
10122;SDS011;5101;49.038;8.710;2023-07-31T14:49:19;4.53;;;1.98;;
10122;SDS011;5101;49.038;8.710;2023-07-31T14:51:45;2.97;;;1.90;;
10122;SDS011;5101;49.038;8.710;2023-07-31T14:54:10;3.10;;;1.60;;
10122;SDS011;5101;49.038;8.710;2023-07-31T14:56:36;2.28;;;1.67;;
10122;SDS011;5101;49.038;8.710;2023-07-31T14:59:01;5.07;;;2.15;;
10122;SDS011;5101;49.038;8.710;2023-07-31T15:01:27;2.47;;;1.60;;
10122;SDS011;5101;49.038;8.710;2023-07-31T15:03:53;5.60;;;2.10;;
10122;SDS011;5101;49.038;8.710;2023-07-31T15:06:18;1.92;;;1.50;;
10122;SDS011;5101;49.038;8.710;2023-07-31T15:08:43;3.42;;;1.65;;
10122;SDS011;5101;49.038;8.710;2023-07-31T15:11:09;2.90;;;1.65;;